Time,TemperatureF,DewpointF,PressureIn,WindDirection,WindDirectionDegrees,WindSpeedMPH,WindSpeedGustMPH,Humidity,HourlyPrecipIn,Conditions,Clouds,dailyrainin,SoftwareType,DateUTC
2013-03-03 00:02:00,-2.0,-7.0,-100.00,ENE,70,0.0,0.0,81,-99.99,,,-99.99,,2013-03-03 06:02:00,
2013-03-03 00:10:00,-5.0,-8.0,-100.00,ENE,65,0.0,0.0,84,-99.99,,,-99.99,,2013-03-03 06:10:00,
2013-03-03 00:32:00,-5.0,-8.0,-100.00,ENE,65,0.0,0.0,84,-99.99,,,-99.99,,2013-03-03 06:32:00,
2013-03-03 00:42:00,-5.0,-8.0,-100.00,ENE,65,0.0,0.0,84,-99.99,,,-99.99,,2013-03-03 06:42:00,
2013-03-03 00:52:00,-5.0,-8.0,-100.00,ENE,65,0.0,0.0,84,-99.99,,,-99.99,,2013-03-03 06:52:00,
2013-03-03 01:01:00,-5.0,-8.0,-100.00,ENE,65,0.0,0.0,84,-99.99,,,-99.99,,2013-03-03 07:01:00,
2013-03-03 01:10:00,-8.0,-10.0,-100.00,ENE,65,0.0,0.0,87,-99.99,,,-99.99,,2013-03-03 07:10:00,
2013-03-03 01:32:00,-8.0,-10.0,-100.00,ENE,65,0.0,0.0,87,-99.99,,,-99.99,,2013-03-03 07:32:00,
2013-03-03 01:42:00,-8.0,-10.0,-100.00,ENE,65,0.0,0.0,87,-99.99,,,-99.99,,2013-03-03 07:42:00,
2013-03-03 01:52:00,-8.0,-10.0,-100.00,ENE,65,0.0,0.0,87,-99.99,,,-99.99,,2013-03-03 07:52:00,
2013-03-03 02:01:00,-8.0,-10.0,-100.00,ENE,65,0.0,0.0,87,-99.99,,,-99.99,,2013-03-03 08:01:00,
2013-03-03 02:32:00,-10.0,-12.0,-100.00,ENE,65,0.0,0.0,88,-99.99,,,-99.99,,2013-03-03 08:32:00,
2013-03-03 02:42:00,-10.0,-12.0,-100.00,ENE,65,0.0,0.0,88,-99.99,,,-99.99,,2013-03-03 08:42:00,
2013-03-03 02:54:00,-10.0,-12.0,-100.00,ENE,65,0.0,0.0,88,-99.99,,,-99.99,,2013-03-03 08:54:00,
2013-03-03 03:01:00,-10.0,-12.0,-100.00,ENE,65,0.0,0.0,88,-99.99,,,-99.99,,2013-03-03 09:01:00,
2013-03-03 03:32:00,-12.0,-14.0,-100.00,ENE,65,0.0,0.0,89,-99.99,,,-99.99,,2013-03-03 09:32:00,
2013-03-03 03:42:00,-12.0,-14.0,-100.00,ENE,65,0.0,0.0,89,-99.99,,,-99.99,,2013-03-03 09:42:00,
2013-03-03 03:52:00,-12.0,-14.0,-100.00,ENE,65,0.0,0.0,89,-99.99,,,-99.99,,2013-03-03 09:52:00,
2013-03-03 04:01:00,-12.0,-14.0,-100.00,ENE,65,0.0,0.0,89,-99.99,,,-99.99,,2013-03-03 10:01:00,
2013-03-03 04:32:00,-13.0,-15.0,-100.00,ENE,60,0.0,0.0,90,-99.99,,,-99.99,,2013-03-03 10:32:00,
2013-03-03 04:42:00,-13.0,-15.0,-100.00,ENE,60,0.0,0.0,90,-99.99,,,-99.99,,2013-03-03 10:42:00,
2013-03-03 04:52:00,-13.0,-15.0,-100.00,ENE,60,0.0,0.0,90,-99.99,,,-99.99,,2013-03-03 10:52:00,
2013-03-03 05:01:00,-13.0,-15.0,-100.00,ENE,60,0.0,0.0,90,-99.99,,,-99.99,,2013-03-03 11:01:00,
2013-03-03 05:10:00,-14.0,-16.0,-100.00,NE,50,0.0,0.0,90,-99.99,,,-99.99,,2013-03-03 11:10:00,
2013-03-03 05:32:00,-14.0,-16.0,-100.00,NE,50,0.0,0.0,90,-99.99,,,-99.99,,2013-03-03 11:32:00,
2013-03-03 05:42:00,-14.0,-16.0,-100.00,NE,50,0.0,0.0,90,-99.99,,,-99.99,,2013-03-03 11:42:00,
2013-03-03 05:52:00,-14.0,-16.0,-100.00,NE,50,0.0,0.0,90,-99.99,,,-99.99,,2013-03-03 11:52:00,
2013-03-03 06:01:00,-14.0,-16.0,-100.00,NE,50,0.0,0.0,90,-99.99,,,-99.99,,2013-03-03 12:01:00,
2013-03-03 06:32:00,-15.0,-17.0,-100.00,NE,40,0.0,0.0,90,-99.99,,,-99.99,,2013-03-03 12:32:00,
2013-03-03 06:43:00,-15.0,-17.0,-100.00,NE,40,0.0,0.0,90,-99.99,,,-99.99,,2013-03-03 12:43:00,
2013-03-03 06:53:00,-15.0,-17.0,-100.00,NE,40,0.0,0.0,90,-99.99,,,-99.99,,2013-03-03 12:53:00,
2013-03-03 07:01:00,-15.0,-17.0,-100.00,NE,40,0.0,0.0,90,-99.99,,,-99.99,,2013-03-03 13:01:00,
2013-03-03 07:11:00,-15.0,-17.0,-100.00,NE,40,0.0,0.0,91,-99.99,,,-99.99,,2013-03-03 13:11:00,
2013-03-03 07:32:00,-15.0,-17.0,-100.00,NE,40,0.0,0.0,91,-99.99,,,-99.99,,2013-03-03 13:32:00,
2013-03-03 07:42:00,-15.0,-17.0,-100.00,NE,40,0.0,0.0,91,-99.99,,,-99.99,,2013-03-03 13:42:00,
2013-03-03 07:52:00,-15.0,-17.0,-100.00,NE,40,0.0,0.0,91,-99.99,,,-99.99,,2013-03-03 13:52:00,
2013-03-03 08:02:00,-15.0,-17.0,-100.00,NE,40,0.0,0.0,91,-99.99,,,-99.99,,2013-03-03 14:02:00,
2013-03-03 08:10:00,-7.0,-9.0,-100.00,NE,45,0.0,0.0,91,-99.99,,,-99.99,,2013-03-03 14:10:00,
2013-03-03 08:32:00,-7.0,-9.0,-100.00,NE,45,0.0,0.0,91,-99.99,,,-99.99,,2013-03-03 14:32:00,
2013-03-03 08:42:00,-7.0,-9.0,-100.00,NE,45,0.0,0.0,91,-99.99,,,-99.99,,2013-03-03 14:42:00,
2013-03-03 08:52:00,-7.0,-9.0,-100.00,NE,45,0.0,0.0,91,-99.99,,,-99.99,,2013-03-03 14:52:00,
2013-03-03 09:01:00,-7.0,-9.0,-100.00,NE,45,0.0,0.0,91,-99.99,,,-99.99,,2013-03-03 15:01:00,
2013-03-03 09:10:00,7.0,5.0,-100.00,East,85,0.0,2.0,91,-99.99,,,-99.99,,2013-03-03 15:10:00,
2013-03-03 09:32:00,7.0,5.0,-100.00,East,85,0.0,2.0,91,-99.99,,,-99.99,,2013-03-03 15:32:00,
2013-03-03 09:42:00,7.0,5.0,-100.00,East,85,0.0,2.0,91,-99.99,,,-99.99,,2013-03-03 15:42:00,
2013-03-03 09:52:00,7.0,5.0,-100.00,East,85,0.0,2.0,91,-99.99,,,-99.99,,2013-03-03 15:52:00,
2013-03-03 10:01:00,7.0,5.0,-100.00,East,85,0.0,2.0,91,-99.99,,,-99.99,,2013-03-03 16:01:00,
2013-03-03 10:10:00,20.0,15.0,-100.00,ENE,75,2.0,6.0,80,-99.99,,,-99.99,,2013-03-03 16:10:00,
2013-03-03 10:32:00,20.0,15.0,-100.00,ENE,75,2.0,6.0,80,-99.99,,,-99.99,,2013-03-03 16:32:00,
2013-03-03 10:42:00,20.0,15.0,-100.00,ENE,75,2.0,6.0,80,-99.99,,,-99.99,,2013-03-03 16:42:00,
2013-03-03 10:52:00,20.0,15.0,-100.00,ENE,75,2.0,6.0,80,-99.99,,,-99.99,,2013-03-03 16:52:00,
2013-03-03 11:01:00,20.0,15.0,-100.00,ENE,75,2.0,6.0,80,-99.99,,,-99.99,,2013-03-03 17:01:00,
2013-03-03 11:10:00,27.0,13.0,-100.00,ENE,65,2.0,5.0,55,-99.99,,,-99.99,,2013-03-03 17:10:00,
2013-03-03 11:32:00,27.0,13.0,-100.00,ENE,65,2.0,5.0,55,-99.99,,,-99.99,,2013-03-03 17:32:00,
2013-03-03 11:42:00,27.0,13.0,-100.00,ENE,65,2.0,5.0,55,-99.99,,,-99.99,,2013-03-03 17:42:00,
2013-03-03 11:52:00,27.0,13.0,-100.00,ENE,65,2.0,5.0,55,-99.99,,,-99.99,,2013-03-03 17:52:00,
2013-03-03 12:01:00,27.0,13.0,-100.00,ENE,65,2.0,5.0,55,-99.99,,,-99.99,,2013-03-03 18:01:00,
2013-03-03 12:10:00,31.0,12.0,-100.00,NNE,20,1.0,7.0,45,-99.99,,,-99.99,,2013-03-03 18:10:00,
2013-03-03 12:32:00,31.0,12.0,-100.00,NNE,20,1.0,7.0,45,-99.99,,,-99.99,,2013-03-03 18:32:00,
2013-03-03 12:42:00,31.0,12.0,-100.00,NNE,20,1.0,7.0,45,-99.99,,,-99.99,,2013-03-03 18:42:00,
2013-03-03 12:52:00,31.0,12.0,-100.00,NNE,20,1.0,7.0,45,-99.99,,,-99.99,,2013-03-03 18:52:00,
2013-03-03 13:02:00,31.0,12.0,-100.00,NNE,20,1.0,7.0,45,-99.99,,,-99.99,,2013-03-03 19:02:00,
2013-03-03 13:10:00,33.0,12.0,-100.00,East,85,1.0,6.0,41,-99.99,,,-99.99,,2013-03-03 19:10:00,
2013-03-03 13:32:00,33.0,12.0,-100.00,East,85,1.0,6.0,41,-99.99,,,-99.99,,2013-03-03 19:32:00,
2013-03-03 13:42:00,33.0,12.0,-100.00,East,85,1.0,6.0,41,-99.99,,,-99.99,,2013-03-03 19:42:00,
2013-03-03 13:52:00,33.0,12.0,-100.00,East,85,1.0,6.0,41,-99.99,,,-99.99,,2013-03-03 19:52:00,
2013-03-03 14:01:00,33.0,12.0,-100.00,East,85,1.0,6.0,41,-99.99,,,-99.99,,2013-03-03 20:01:00,
2013-03-03 14:32:00,36.0,11.0,-100.00,ENE,75,1.0,6.0,35,-99.99,,,-99.99,,2013-03-03 20:32:00,
2013-03-03 14:42:00,36.0,11.0,-100.00,ENE,75,1.0,6.0,35,-99.99,,,-99.99,,2013-03-03 20:42:00,
2013-03-03 14:53:00,36.0,11.0,-100.00,ENE,75,1.0,6.0,35,-99.99,,,-99.99,,2013-03-03 20:53:00,
2013-03-03 15:02:00,36.0,11.0,-100.00,ENE,75,1.0,6.0,35,-99.99,,,-99.99,,2013-03-03 21:02:00,
2013-03-03 15:11:00,36.0,11.0,-100.00,ENE,75,1.0,6.0,35,-99.99,,,-99.99,,2013-03-03 21:11:00,
2013-03-03 15:32:00,36.0,10.0,-100.00,ESE,115,1.0,4.0,34,-99.99,,,-99.99,,2013-03-03 21:32:00,
2013-03-03 15:42:00,36.0,10.0,-100.00,ESE,115,1.0,4.0,34,-99.99,,,-99.99,,2013-03-03 21:42:00,
2013-03-03 15:52:00,36.0,10.0,-100.00,ESE,115,1.0,4.0,34,-99.99,,,-99.99,,2013-03-03 21:52:00,
2013-03-03 16:01:00,36.0,10.0,-100.00,ESE,115,1.0,4.0,34,-99.99,,,-99.99,,2013-03-03 22:01:00,
2013-03-03 16:11:00,36.0,10.0,-100.00,ESE,115,1.0,4.0,34,-99.99,,,-99.99,,2013-03-03 22:11:00,
2013-03-03 16:32:00,35.0,9.0,-100.00,NNE,25,3.0,7.0,33,-99.99,,,-99.99,,2013-03-03 22:32:00,
2013-03-03 16:42:00,35.0,9.0,-100.00,NNE,25,3.0,7.0,33,-99.99,,,-99.99,,2013-03-03 22:42:00,
2013-03-03 16:52:00,35.0,9.0,-100.00,NNE,25,3.0,7.0,33,-99.99,,,-99.99,,2013-03-03 22:52:00,
2013-03-03 17:01:00,35.0,9.0,-100.00,NNE,25,3.0,7.0,33,-99.99,,,-99.99,,2013-03-03 23:01:00,
2013-03-03 17:32:00,32.0,6.0,-100.00,East,80,0.0,3.0,33,-99.99,,,-99.99,,2013-03-03 23:32:00,
2013-03-03 17:42:00,32.0,6.0,-100.00,East,80,0.0,3.0,33,-99.99,,,-99.99,,2013-03-03 23:42:00,
2013-03-03 17:52:00,32.0,6.0,-100.00,East,80,0.0,3.0,33,-99.99,,,-99.99,,2013-03-03 23:52:00,
2013-03-03 18:01:00,32.0,6.0,-100.00,East,80,0.0,3.0,33,-99.99,,,-99.99,,2013-03-04 00:01:00,
2013-03-03 18:11:00,32.0,6.0,-100.00,East,80,0.0,3.0,33,-99.99,,,-99.99,,2013-03-04 00:11:00,
2013-03-03 18:32:00,22.0,4.0,-100.00,ENE,60,0.0,0.0,45,-99.99,,,-99.99,,2013-03-04 00:32:00,
2013-03-03 18:42:00,22.0,4.0,-100.00,ENE,60,0.0,0.0,45,-99.99,,,-99.99,,2013-03-04 00:42:00,
2013-03-03 18:52:00,22.0,4.0,-100.00,ENE,60,0.0,0.0,45,-99.99,,,-99.99,,2013-03-04 00:52:00,
2013-03-03 19:01:00,22.0,4.0,-100.00,ENE,60,0.0,0.0,45,-99.99,,,-99.99,,2013-03-04 01:01:00,
2013-03-03 19:11:00,16.0,4.0,-100.00,ENE,70,0.0,0.0,61,-99.99,,,-99.99,,2013-03-04 01:11:00,
2013-03-03 19:32:00,16.0,4.0,-100.00,ENE,70,0.0,0.0,61,-99.99,,,-99.99,,2013-03-04 01:32:00,
2013-03-03 19:42:00,16.0,4.0,-100.00,ENE,70,0.0,0.0,61,-99.99,,,-99.99,,2013-03-04 01:42:00,
2013-03-03 19:52:00,16.0,4.0,-100.00,ENE,70,0.0,0.0,61,-99.99,,,-99.99,,2013-03-04 01:52:00,
2013-03-03 20:01:00,16.0,4.0,-100.00,ENE,70,0.0,0.0,61,-99.99,,,-99.99,,2013-03-04 02:01:00,
2013-03-03 20:10:00,12.0,4.0,-100.00,ENE,70,0.0,0.0,72,-99.99,,,-99.99,,2013-03-04 02:10:00,
2013-03-03 20:32:00,12.0,4.0,-100.00,ENE,70,0.0,0.0,72,-99.99,,,-99.99,,2013-03-04 02:32:00,
2013-03-03 20:42:00,12.0,4.0,-100.00,ENE,70,0.0,0.0,72,-99.99,,,-99.99,,2013-03-04 02:42:00,
2013-03-03 20:52:00,12.0,4.0,-100.00,ENE,70,0.0,0.0,72,-99.99,,,-99.99,,2013-03-04 02:52:00,
2013-03-03 21:01:00,12.0,4.0,-100.00,ENE,70,0.0,0.0,72,-99.99,,,-99.99,,2013-03-04 03:01:00,
2013-03-03 21:11:00,9.0,3.0,-100.00,ENE,75,0.0,0.0,78,-99.99,,,-99.99,,2013-03-04 03:11:00,
2013-03-03 21:32:00,9.0,3.0,-100.00,ENE,75,0.0,0.0,78,-99.99,,,-99.99,,2013-03-04 03:32:00,
2013-03-03 21:42:00,9.0,3.0,-100.00,ENE,75,0.0,0.0,78,-99.99,,,-99.99,,2013-03-04 03:42:00,
2013-03-03 21:52:00,9.0,3.0,-100.00,ENE,75,0.0,0.0,78,-99.99,,,-99.99,,2013-03-04 03:52:00,
2013-03-03 22:01:00,9.0,3.0,-100.00,ENE,75,0.0,0.0,78,-99.99,,,-99.99,,2013-03-04 04:01:00,
2013-03-03 22:11:00,6.0,2.0,-100.00,ENE,70,0.0,1.0,82,-99.99,,,-99.99,,2013-03-04 04:11:00,
2013-03-03 22:32:00,6.0,2.0,-100.00,ENE,70,0.0,1.0,82,-99.99,,,-99.99,,2013-03-04 04:32:00,
2013-03-03 22:42:00,6.0,2.0,-100.00,ENE,70,0.0,1.0,82,-99.99,,,-99.99,,2013-03-04 04:42:00,
2013-03-03 22:52:00,6.0,2.0,-100.00,ENE,70,0.0,1.0,82,-99.99,,,-99.99,,2013-03-04 04:52:00,
2013-03-03 23:01:00,6.0,2.0,-100.00,ENE,70,0.0,1.0,82,-99.99,,,-99.99,,2013-03-04 05:01:00,
2013-03-03 23:11:00,4.0,0.0,-100.00,ENE,60,0.0,0.0,85,-99.99,,,-99.99,,2013-03-04 05:11:00,
2013-03-03 23:32:00,4.0,0.0,-100.00,ENE,60,0.0,0.0,85,-99.99,,,-99.99,,2013-03-04 05:32:00,
2013-03-03 23:43:00,4.0,0.0,-100.00,ENE,60,0.0,0.0,85,-99.99,,,-99.99,,2013-03-04 05:43:00,
2013-03-03 23:52:00,4.0,0.0,-100.00,ENE,60,0.0,0.0,85,-99.99,,,-99.99,,2013-03-04 05:52:00,